Time;durP1;ratioP1;P1;durP2;ratioP2;P2;SDS_P1;SDS_P2;PMS_P1;PMS_P2;Temp;Humidity;BMP_temperature;BMP_pressure;BME280_temperature;BME280_humidity;BME280_pressure;Samples;Min_cycle;Max_cycle;Signal;HPM_P1;HPM_P2
2022/12/29 00:01:17;;;;;;;2.40;2.00;;;13.60;52.10;;;;;;4993725;28;20195;-57
2022/12/29 00:03:45;;;;;;;2.20;1.70;;;13.70;52.00;;;;;;4993982;28;20206;-57
2022/12/29 00:06:11;;;;;;;2.03;1.83;;;13.70;51.90;;;;;;4994253;28;20337;-57
2022/12/29 00:08:39;;;;;;;4.00;2.00;;;13.70;51.80;;;;;;4992805;28;20580;-57
2022/12/29 00:11:13;;;;;;;2.50;2.30;;;13.70;51.90;;;;;;4993462;28;20394;-57
2022/12/29 00:16:24;;;;;;;2.83;2.53;;;13.70;51.70;;;;;;4993835;28;20524;-57
2022/12/29 00:18:50;;;;;;;3.27;2.50;;;13.70;51.80;;;;;;5000354;28;20924;-57
2022/12/29 00:35:09;;;;;;;3.27;2.30;;;13.20;53.10;;;;;;4993308;28;20425;-57
2022/12/29 00:45:50;;;;;;;2.50;2.30;;;13.10;53.10;;;;;;4992948;28;20509;-57
2022/12/29 00:49:29;;;;;;;2.73;2.33;;;13.20;53.10;;;;;;4993174;28;20576;-57
2022/12/29 00:51:01;;;;;;;4.23;2.37;;;13.30;53.10;;;;;;4991535;28;20297;-57
2022/12/29 00:53:26;;;;;;;2.37;1.80;;;13.40;52.70;;;;;;4993051;28;20509;-57
2022/12/29 00:55:52;;;;;;;2.67;2.40;;;13.40;52.70;;;;;;4992824;28;20256;-57
2022/12/29 00:58:17;;;;;;;2.60;2.40;;;13.50;52.50;;;;;;4993152;28;20195;-57
2022/12/29 01:00:43;;;;;;;2.63;2.37;;;13.70;52.10;;;;;;4992549;28;20197;-57
2022/12/29 01:03:08;;;;;;;5.10;3.20;;;13.40;52.40;;;;;;4993038;28;20576;-58
2022/12/29 01:05:36;;;;;;;4.53;2.23;;;13.50;52.70;;;;;;4992862;28;20205;-57
2022/12/29 01:08:02;;;;;;;4.27;2.40;;;13.70;52.30;;;;;;4992844;28;20313;-57
2022/12/29 01:10:28;;;;;;;2.90;2.50;;;13.80;52.10;;;;;;4992809;28;20513;-57
2022/12/29 01:12:53;;;;;;;3.13;2.40;;;13.80;52.20;;;;;;4992321;28;20202;-57
2022/12/29 01:15:19;;;;;;;2.37;1.97;;;13.70;51.90;;;;;;4991094;28;20245;-57
2022/12/29 01:17:45;;;;;;;2.27;1.80;;;13.80;51.90;;;;;;4992548;28;20227;-58
2022/12/29 01:20:11;;;;;;;2.20;2.10;;;13.90;51.80;;;;;;5004531;28;20190;-57
2022/12/29 01:22:37;;;;;;;2.30;2.10;;;14.10;51.60;;;;;;4992214;28;20200;-57
2022/12/29 01:25:03;;;;;;;2.30;2.10;;;14.20;51.30;;;;;;4990373;28;20529;-58
2022/12/29 01:27:29;;;;;;;3.13;2.07;;;14.30;51.10;;;;;;4992452;28;20218;-57
2022/12/29 01:29:55;;;;;;;4.40;1.97;;;14.30;50.80;;;;;;4992501;28;20429;-57
2022/12/29 01:32:20;;;;;;;2.47;1.90;;;14.20;50.80;;;;;;4992045;28;20192;-57
2022/12/29 01:34:46;;;;;;;2.33;1.83;;;14.10;50.80;;;;;;4992355;28;20230;-57
2022/12/29 01:37:11;;;;;;;2.03;1.80;;;14.20;50.80;;;;;;5007693;28;20203;-57
2022/12/29 01:39:37;;;;;;;2.17;1.77;;;14.40;50.50;;;;;;4992349;28;20212;-58
2022/12/29 01:42:03;;;;;;;2.20;1.77;;;14.50;50.30;;;;;;4990289;28;20207;-58
2022/12/29 01:44:52;;;;;;;1.83;1.60;;;14.60;50.10;;;;;;4992306;28;20651;-57
2022/12/29 01:47:34;;;;;;;1.73;1.63;;;14.70;49.80;;;;;;4992074;28;20226;-57
2022/12/29 01:50:09;;;;;;;4.90;1.80;;;14.60;49.60;;;;;;4992073;28;20900;-58
2022/12/29 01:52:40;;;;;;;1.63;1.53;;;14.60;49.80;;;;;;4991586;28;20963;-57
2022/12/29 01:55:07;;;;;;;2.70;1.97;;;14.60;49.80;;;;;;4992164;28;20487;-58
2022/12/29 01:57:37;;;;;;;1.57;1.30;;;14.70;49.60;;;;;;4992052;28;20437;-58
2022/12/29 02:00:08;;;;;;;2.03;1.67;;;14.80;49.60;;;;;;4992114;28;20499;-58
2022/12/29 02:02:34;;;;;;;1.70;1.60;;;14.80;49.40;;;;;;4991549;28;20442;-57
2022/12/29 02:05:05;;;;;;;2.40;1.50;;;14.90;49.40;;;;;;4992049;28;20527;-58
2022/12/29 02:07:31;;;;;;;2.37;2.03;;;14.90;49.30;;;;;;4991869;28;20889;-58
2022/12/29 02:10:00;;;;;;;3.73;2.07;;;14.80;49.20;;;;;;4990473;28;20794;-58
2022/12/29 02:12:25;;;;;;;2.90;1.73;;;14.80;49.20;;;;;;4991400;28;20437;-57
2022/12/29 02:14:57;;;;;;;2.53;1.90;;;14.60;49.50;;;;;;4991826;28;20442;-57
2022/12/29 02:17:46;;;;;;;5.83;1.90;;;14.50;49.60;;;;;;4991846;28;20263;-57
2022/12/29 02:20:20;;;;;;;2.17;1.83;;;14.60;49.80;;;;;;5005104;28;20445;-58
2022/12/29 02:23:16;;;;;;;2.40;1.60;;;14.70;49.70;;;;;;4991436;28;20918;-57
2022/12/29 02:26:10;;;;;;;2.00;1.60;;;14.70;49.90;;;;;;4989992;28;20466;-57
2022/12/29 02:28:44;;;;;;;2.37;1.80;;;14.80;49.80;;;;;;4991739;28;20474;-57
2022/12/29 02:31:19;;;;;;;5.80;1.67;;;14.70;49.70;;;;;;4992295;28;20951;-57
2022/12/29 02:34:00;;;;;;;1.63;1.40;;;14.70;49.70;;;;;;4995561;28;20527;-57
2022/12/29 02:36:51;;;;;;;3.40;1.50;;;14.70;49.90;;;;;;4994047;28;20461;-57
2022/12/29 02:39:55;;;;;;;1.97;1.77;;;14.80;49.60;;;;;;4995870;28;20433;-58
2022/12/29 02:42:43;;;;;;;1.80;1.60;;;14.80;49.70;;;;;;4995165;28;20488;-57
2022/12/29 02:45:16;;;;;;;3.30;1.70;;;14.90;49.70;;;;;;4995534;28;20828;-57
2022/12/29 02:47:54;;;;;;;1.70;1.40;;;14.90;49.50;;;;;;4995371;28;20957;-57
2022/12/29 02:50:25;;;;;;;4.37;1.50;;;15.00;49.40;;;;;;4995453;28;20484;-58
2022/12/29 02:53:04;;;;;;;4.13;1.50;;;15.00;49.40;;;;;;4994959;28;20421;-58
2022/12/29 02:55:30;;;;;;;1.93;1.17;;;15.00;49.20;;;;;;4995391;28;20437;-58
2022/12/29 02:58:18;;;;;;;2.27;1.47;;;14.90;49.40;;;;;;4995211;28;20944;-58
2022/12/29 03:01:03;;;;;;;2.90;1.20;;;15.00;49.30;;;;;;4994784;28;20195;-58
2022/12/29 03:03:55;;;;;;;3.67;1.37;;;15.00;49.40;;;;;;4994342;28;20426;-57
2022/12/29 03:06:51;;;;;;;2.43;1.23;;;15.10;49.30;;;;;;4995020;28;20434;-58
2022/12/29 03:09:31;;;;;;;2.07;1.43;;;15.00;49.10;;;;;;4994941;28;21004;-57
2022/12/29 03:12:09;;;;;;;1.53;1.20;;;15.00;49.30;;;;;;4994507;28;20512;-58
2022/12/29 03:18:12;;;;;;;1.50;1.40;;;15.10;49.30;;;;;;4994926;28;20822;-57
2022/12/29 03:20:46;;;;;;;3.00;1.60;;;15.00;49.30;;;;;;4983087;28;20430;-58
2022/12/29 03:23:13;;;;;;;3.90;1.83;;;15.00;49.30;;;;;;4994912;28;20433;-57
2022/12/29 03:25:43;;;;;;;2.70;1.63;;;15.10;49.30;;;;;;4993581;28;20536;-58
2022/12/29 03:28:31;;;;;;;2.47;1.60;;;15.20;49.30;;;;;;4993087;28;20960;-57
2022/12/29 03:30:58;;;;;;;4.10;1.40;;;15.20;49.30;;;;;;4994195;28;20422;-58
2022/12/29 03:33:28;;;;;;;1.30;1.20;;;15.10;49.10;;;;;;4994606;28;20453;-58
2022/12/29 03:35:59;;;;;;;3.47;1.43;;;15.20;49.00;;;;;;4994605;28;20429;-58
2022/12/29 03:38:34;;;;;;;3.60;1.40;;;14.90;48.80;;;;;;4994189;28;20458;-58
2022/12/29 03:41:04;;;;;;;3.67;1.33;;;14.90;49.30;;;;;;4994001;28;20492;-58
2022/12/29 03:43:30;;;;;;;1.70;1.20;;;15.10;49.30;;;;;;4993209;28;20802;-57
2022/12/29 03:45:56;;;;;;;1.80;1.33;;;15.10;49.00;;;;;;4994384;28;20438;-57
2022/12/29 03:48:21;;;;;;;1.40;1.30;;;15.00;49.10;;;;;;4994297;28;20492;-58
2022/12/29 03:50:47;;;;;;;1.83;1.40;;;15.10;49.10;;;;;;4993883;28;20201;-58
2022/12/29 03:53:13;;;;;;;3.67;1.40;;;15.00;49.30;;;;;;4994267;28;20669;-57
2022/12/29 03:55:38;;;;;;;1.97;1.10;;;15.10;49.00;;;;;;4992706;28;20205;-57
2022/12/29 03:58:04;;;;;;;2.80;1.60;;;15.30;49.00;;;;;;4994248;28;20194;-58
2022/12/29 04:00:30;;;;;;;3.00;1.50;;;15.20;48.90;;;;;;4993584;28;20674;-58
2022/12/29 04:02:55;;;;;;;1.40;1.30;;;15.20;48.90;;;;;;4994032;28;20226;-57
2022/12/29 04:05:21;;;;;;;1.47;0.87;;;15.00;48.90;;;;;;4993945;28;20191;-57
2022/12/29 04:07:47;;;;;;;1.53;1.37;;;15.00;49.50;;;;;;4994334;28;20226;-57
2022/12/29 04:10:12;;;;;;;2.60;1.30;;;15.20;49.30;;;;;;4993917;28;20193;-58
2022/12/29 04:12:38;;;;;;;2.47;1.63;;;15.40;48.80;;;;;;4993662;28;20201;-57
2022/12/29 04:15:04;;;;;;;2.60;1.70;;;15.30;49.10;;;;;;4993670;28;20249;-57
2022/12/29 04:17:29;;;;;;;1.97;1.40;;;15.20;49.10;;;;;;4993696;28;20231;-58
2022/12/29 04:20:59;;;;;;;2.07;1.67;;;15.20;49.10;;;;;;4993768;28;20497;-58
2022/12/29 04:22:43;;;;;;;5.60;1.30;;;15.20;49.20;;;;;;4991575;28;20693;-58
2022/12/29 04:25:09;;;;;;;2.27;1.40;;;15.10;49.30;;;;;;4993451;28;20429;-58
2022/12/29 04:27:34;;;;;;;2.50;1.43;;;15.10;49.80;;;;;;4993516;28;20222;-58
2022/12/29 04:30:00;;;;;;;3.03;1.50;;;14.90;50.10;;;;;;4993595;28;20205;-57
2022/12/29 04:32:26;;;;;;;2.47;1.47;;;15.10;50.10;;;;;;4993180;28;20217;-57
2022/12/29 04:34:51;;;;;;;3.30;1.30;;;14.90;50.20;;;;;;4993384;28;20230;-57
2022/12/29 04:37:17;;;;;;;1.30;1.20;;;14.90;50.60;;;;;;4993375;28;20257;-57
2022/12/29 04:39:42;;;;;;;2.40;1.30;;;14.90;50.70;;;;;;4993446;28;20282;-57
2022/12/29 04:42:08;;;;;;;4.80;1.40;;;15.20;50.50;;;;;;4993032;28;20199;-58
2022/12/29 04:44:33;;;;;;;1.10;1.00;;;15.00;50.50;;;;;;4993321;28;20199;-58
2022/12/29 04:46:59;;;;;;;4.07;1.47;;;14.80;50.90;;;;;;4992911;28;20301;-57
2022/12/29 04:49:24;;;;;;;2.10;1.20;;;14.80;51.20;;;;;;4991958;28;20195;-57
2022/12/29 04:51:50;;;;;;;2.23;1.50;;;14.90;51.30;;;;;;4992894;28;20257;-57
2022/12/29 04:54:16;;;;;;;2.37;1.43;;;14.50;51.60;;;;;;4992516;28;20201;-58
2022/12/29 04:56:41;;;;;;;1.83;1.60;;;14.50;52.30;;;;;;4993278;28;20191;-58
2022/12/29 04:59:07;;;;;;;1.40;1.03;;;14.50;52.80;;;;;;4993093;28;20702;-58
2022/12/29 05:01:32;;;;;;;2.83;1.43;;;14.60;52.30;;;;;;4992686;28;20205;-57
2022/12/29 05:03:58;;;;;;;1.37;1.27;;;14.50;52.60;;;;;;4992880;28;20191;-57
2022/12/29 05:06:23;;;;;;;1.20;1.10;;;14.60;52.60;;;;;;4992934;28;20647;-57
2022/12/29 05:08:49;;;;;;;2.20;2.00;;;14.70;52.20;;;;;;4992626;28;20225;-57
2022/12/29 05:11:15;;;;;;;1.57;1.07;;;14.80;52.40;;;;;;4992336;28;20621;-58
2022/12/29 05:13:40;;;;;;;2.03;1.47;;;14.90;52.30;;;;;;4991718;28;20194;-57
2022/12/29 05:16:06;;;;;;;1.70;1.50;;;14.90;52.30;;;;;;4992123;28;20648;-58
2022/12/29 05:18:31;;;;;;;3.00;1.70;;;14.90;52.70;;;;;;4992611;28;20244;-57
2022/12/29 05:20:57;;;;;;;3.70;1.50;;;15.00;52.10;;;;;;4992307;28;20194;-57
2022/12/29 05:23:23;;;;;;;2.53;1.30;;;15.10;52.30;;;;;;4992627;28;20277;-57
2022/12/29 05:25:48;;;;;;;2.53;1.27;;;15.10;52.00;;;;;;4992297;28;20194;-57
2022/12/29 05:28:14;;;;;;;2.10;1.50;;;14.90;52.40;;;;;;4992606;28;20237;-58
2022/12/29 05:30:39;;;;;;;1.90;1.60;;;15.10;52.50;;;;;;4992107;28;20190;-57
2022/12/29 05:33:06;;;;;;;2.87;1.60;;;14.90;52.40;;;;;;4992361;28;20242;-58
2022/12/29 05:35:32;;;;;;;2.27;1.60;;;15.10;52.40;;;;;;4992316;28;20241;-57
2022/12/29 05:37:58;;;;;;;3.50;1.73;;;15.20;51.80;;;;;;4992367;28;20434;-58
2022/12/29 05:40:23;;;;;;;2.67;1.40;;;15.20;51.60;;;;;;4990250;28;20436;-58
2022/12/29 05:42:49;;;;;;;1.67;1.43;;;15.20;51.50;;;;;;4992365;28;20198;-58
2022/12/29 05:45:15;;;;;;;2.17;1.27;;;15.30;51.10;;;;;;4992472;28;20198;-57
2022/12/29 05:47:40;;;;;;;4.97;1.40;;;15.10;51.30;;;;;;4992352;28;20233;-58
2022/12/29 05:50:06;;;;;;;1.80;1.20;;;15.00;51.30;;;;;;4992345;28;20195;-57
2022/12/29 05:52:32;;;;;;;2.70;1.50;;;15.10;51.30;;;;;;4991714;28;20559;-57
2022/12/29 05:54:57;;;;;;;2.40;1.40;;;15.10;51.30;;;;;;4992175;28;20277;-58
2022/12/29 05:57:23;;;;;;;1.63;1.30;;;15.10;51.00;;;;;;4992130;28;20191;-57
2022/12/29 05:59:48;;;;;;;1.20;1.10;;;15.20;51.00;;;;;;4991996;28;20202;-57
2022/12/29 06:02:14;;;;;;;2.20;1.30;;;15.10;50.90;;;;;;4991576;28;20329;-58
2022/12/29 06:04:39;;;;;;;2.13;1.40;;;14.80;51.80;;;;;;4992107;28;20194;-58
2022/12/29 06:07:05;;;;;;;3.67;2.03;;;14.70;51.70;;;;;;4989469;28;20315;-58
2022/12/29 06:09:30;;;;;;;1.93;1.50;;;14.80;51.50;;;;;;4992202;28;20191;-57
2022/12/29 06:11:56;;;;;;;2.33;1.30;;;14.80;51.20;;;;;;4991675;28;20698;-57
2022/12/29 06:14:22;;;;;;;2.37;1.30;;;14.80;51.20;;;;;;4992016;28;20195;-58
2022/12/29 06:16:47;;;;;;;3.00;1.70;;;14.90;51.00;;;;;;4991716;28;20230;-57
2022/12/29 06:19:13;;;;;;;2.80;1.87;;;15.00;50.80;;;;;;4991849;28;20653;-58
2022/12/29 06:21:38;;;;;;;2.87;1.77;;;15.00;50.60;;;;;;4991559;28;20194;-57
2022/12/29 06:24:04;;;;;;;2.13;1.40;;;15.00;50.60;;;;;;4991765;28;20261;-57
2022/12/29 06:26:30;;;;;;;2.23;1.50;;;15.00;50.50;;;;;;4991666;28;20589;-57
2022/12/29 06:28:56;;;;;;;2.60;2.03;;;15.00;50.50;;;;;;4991650;28;20485;-57
2022/12/29 06:31:22;;;;;;;3.43;1.40;;;15.20;50.30;;;;;;4991192;28;20206;-58
2022/12/29 06:33:47;;;;;;;1.73;1.47;;;15.20;49.90;;;;;;4990327;28;20643;-57
2022/12/29 06:36:13;;;;;;;3.10;1.53;;;15.30;49.90;;;;;;4991830;28;20267;-58
2022/12/29 06:38:38;;;;;;;1.67;1.50;;;15.20;49.80;;;;;;4991732;28;20194;-57
2022/12/29 06:41:04;;;;;;;2.23;1.40;;;15.20;49.80;;;;;;4991553;28;20205;-57
2022/12/29 06:43:30;;;;;;;2.03;1.67;;;15.20;49.80;;;;;;4991634;28;20556;-57
2022/12/29 06:45:56;;;;;;;2.63;1.43;;;15.20;49.70;;;;;;4991682;28;20542;-57
2022/12/29 06:48:21;;;;;;;1.80;1.50;;;15.20;49.70;;;;;;4991622;28;20530;-58
2022/12/29 06:50:47;;;;;;;1.30;1.20;;;15.30;49.80;;;;;;4991174;28;20547;-58
2022/12/29 06:53:12;;;;;;;1.80;1.70;;;15.30;49.60;;;;;;4991823;28;20202;-58
2022/12/29 06:55:38;;;;;;;2.50;1.63;;;15.40;49.50;;;;;;4991664;28;20268;-57
2022/12/29 06:58:03;;;;;;;2.50;1.93;;;15.40;49.30;;;;;;4991495;28;20198;-58
2022/12/29 07:00:29;;;;;;;5.40;1.70;;;15.40;49.10;;;;;;4989497;28;20663;-57
2022/12/29 07:02:57;;;;;;;7.10;2.60;;;15.30;49.30;;;;;;4991453;28;20203;-58
2022/12/29 07:05:24;;;;;;;3.67;1.53;;;15.20;49.50;;;;;;4991373;28;20682;-58
2022/12/29 07:07:50;;;;;;;4.10;1.57;;;15.10;50.10;;;;;;4991492;28;20581;-58
2022/12/29 07:10:16;;;;;;;2.57;1.70;;;15.10;49.60;;;;;;4991043;28;20443;-57
2022/12/29 07:12:41;;;;;;;1.83;1.60;;;14.90;49.80;;;;;;4991592;28;20432;-57
2022/12/29 07:15:07;;;;;;;2.60;1.63;;;14.90;50.10;;;;;;4991410;28;20215;-57
2022/12/29 07:17:33;;;;;;;2.57;1.57;;;14.90;50.30;;;;;;4992932;28;20686;-57
2022/12/29 07:20:00;;;;;;;1.90;1.40;;;14.90;50.40;;;;;;4994787;28;20507;-57
2022/12/29 07:22:25;;;;;;;3.00;1.80;;;14.80;51.30;;;;;;4994641;28;20449;-57
2022/12/29 07:24:51;;;;;;;2.70;2.50;;;14.80;50.80;;;;;;4994670;28;20232;-58
2022/12/29 07:27:16;;;;;;;4.63;1.67;;;14.90;50.80;;;;;;4993405;28;20210;-57
2022/12/29 07:29:42;;;;;;;3.10;1.60;;;14.80;50.80;;;;;;4995006;28;20642;-57
2022/12/29 07:32:07;;;;;;;3.00;1.50;;;14.80;51.00;;;;;;4994518;28;20266;-57
2022/12/29 07:34:33;;;;;;;1.70;1.60;;;14.80;51.00;;;;;;4994719;28;20638;-57
2022/12/29 07:36:59;;;;;;;2.53;1.50;;;15.10;51.00;;;;;;4994737;28;20643;-58
2022/12/29 07:39:24;;;;;;;2.73;1.53;;;15.50;50.20;;;;;;4995055;28;20182;-58
2022/12/29 07:41:50;;;;;;;1.90;1.50;;;15.90;49.30;;;;;;4994219;28;20562;-58
2022/12/29 07:44:16;;;;;;;2.30;1.37;;;16.00;48.70;;;;;;4994503;28;20191;-57
2022/12/29 07:46:41;;;;;;;1.53;1.43;;;16.10;48.70;;;;;;4994404;28;20190;-57
2022/12/29 07:49:07;;;;;;;1.97;1.40;;;15.90;48.90;;;;;;4994204;28;20206;-57
2022/12/29 07:51:32;;;;;;;1.70;1.57;;;15.80;49.10;;;;;;4993896;28;20295;-58
2022/12/29 07:54:00;;;;;;;1.80;1.60;;;15.60;49.80;;;;;;4992805;28;20504;-58
2022/12/29 07:56:26;;;;;;;1.50;1.40;;;15.60;49.80;;;;;;4994182;28;20207;-58
2022/12/29 07:58:52;;;;;;;2.33;1.60;;;15.50;50.00;;;;;;4994064;28;20444;-58
2022/12/29 08:01:17;;;;;;;2.40;2.20;;;15.50;50.10;;;;;;4993609;28;20418;-57
2022/12/29 08:03:43;;;;;;;1.37;1.27;;;15.40;50.60;;;;;;4993836;28;20650;-57
2022/12/29 08:06:10;;;;;;;4.87;2.00;;;15.30;50.50;;;;;;4993992;28;20285;-58
2022/12/29 08:08:36;;;;;;;2.80;1.60;;;15.40;50.60;;;;;;4993822;28;20230;-58
2022/12/29 08:11:01;;;;;;;1.40;1.30;;;15.40;50.60;;;;;;4993609;28;20433;-58
2022/12/29 08:13:27;;;;;;;1.50;1.40;;;15.30;50.70;;;;;;4993856;28;20203;-58
2022/12/29 08:15:52;;;;;;;1.70;1.60;;;15.40;50.70;;;;;;4993886;28;20210;-58
2022/12/29 08:18:18;;;;;;;4.00;1.63;;;15.30;50.80;;;;;;4993697;28;20242;-57
2022/12/29 08:20:43;;;;;;;1.80;1.53;;;15.40;50.80;;;;;;4991964;28;20195;-57
2022/12/29 08:23:10;;;;;;;1.40;1.30;;;15.40;50.90;;;;;;4993832;28;20191;-58
2022/12/29 08:25:35;;;;;;;3.90;1.70;;;15.50;50.80;;;;;;4993516;28;20199;-57
2022/12/29 08:28:01;;;;;;;2.63;1.40;;;15.50;50.70;;;;;;4993533;28;20484;-58
2022/12/29 08:30:26;;;;;;;1.80;1.60;;;15.60;50.70;;;;;;4992723;28;20639;-57
2022/12/29 08:32:52;;;;;;;1.80;1.20;;;15.40;50.80;;;;;;4993808;28;20190;-58
2022/12/29 08:35:18;;;;;;;1.30;1.20;;;15.50;50.80;;;;;;4993519;28;20201;-58
2022/12/29 08:37:43;;;;;;;1.70;1.60;;;15.70;50.70;;;;;;4993301;28;20190;-57
2022/12/29 08:40:09;;;;;;;1.70;1.60;;;15.70;50.70;;;;;;4993096;28;20191;-57
2022/12/29 08:42:35;;;;;;;1.20;1.10;;;15.60;50.70;;;;;;4993205;28;20194;-58
2022/12/29 08:45:01;;;;;;;2.70;1.43;;;15.60;50.90;;;;;;4993398;28;20429;-58
2022/12/29 08:47:27;;;;;;;1.77;1.47;;;15.60;51.00;;;;;;4990150;28;20230;-58
2022/12/29 08:49:55;;;;;;;1.53;1.40;;;15.60;51.00;;;;;;4992828;28;20429;-57
2022/12/29 08:52:21;;;;;;;1.60;1.50;;;15.60;51.10;;;;;;4993077;28;20426;-58
2022/12/29 08:54:46;;;;;;;2.90;1.43;;;15.70;50.90;;;;;;4993072;28;20954;-57
2022/12/29 08:57:12;;;;;;;3.13;1.80;;;15.80;50.80;;;;;;4993091;28;20198;-57
2022/12/29 08:59:38;;;;;;;1.80;1.70;;;15.80;50.50;;;;;;4993103;28;20643;-57
2022/12/29 09:02:03;;;;;;;4.80;2.00;;;15.80;50.50;;;;;;4992532;28;20256;-58
2022/12/29 09:04:29;;;;;;;2.50;1.53;;;15.70;50.60;;;;;;4993224;28;20186;-58
2022/12/29 09:06:54;;;;;;;3.67;1.70;;;15.70;50.50;;;;;;4992869;28;20194;-57
2022/12/29 09:09:20;;;;;;;1.57;1.47;;;15.50;50.50;;;;;;4992960;28;20276;-57
2022/12/29 09:11:46;;;;;;;3.07;1.60;;;15.60;50.90;;;;;;4992734;28;20634;-58
2022/12/29 09:14:12;;;;;;;1.77;1.17;;;15.50;50.50;;;;;;4991402;28;20510;-57
2022/12/29 09:19:25;;;;;;;1.67;1.40;;;15.20;50.40;;;;;;4972077;28;20453;-58
2022/12/29 09:21:51;;;;;;;2.60;1.30;;;15.40;50.70;;;;;;4992357;28;20430;-57
2022/12/29 09:24:16;;;;;;;4.80;1.77;;;15.50;50.50;;;;;;4992553;28;20187;-57
2022/12/29 09:26:42;;;;;;;2.77;1.83;;;15.60;50.50;;;;;;4992678;28;20191;-57
2022/12/29 09:29:07;;;;;;;2.93;1.77;;;15.70;50.40;;;;;;4992605;28;20210;-58
2022/12/29 09:31:33;;;;;;;1.30;1.20;;;15.80;50.40;;;;;;4992207;28;20202;-57
2022/12/29 09:33:58;;;;;;;2.10;1.63;;;15.70;50.20;;;;;;4992739;28;20199;-58
2022/12/29 09:36:24;;;;;;;1.93;1.23;;;15.80;49.90;;;;;;4992467;28;20278;-58
2022/12/29 09:38:50;;;;;;;3.33;1.67;;;15.70;49.80;;;;;;4990978;28;20186;-57
2022/12/29 09:41:29;;;;;;;3.03;1.53;;;15.60;50.00;;;;;;4992244;28;20201;-58
2022/12/29 09:44:06;;;;;;;2.60;1.83;;;15.70;50.20;;;;;;4992466;28;20198;-57
2022/12/29 09:46:39;;;;;;;2.27;1.50;;;15.80;50.20;;;;;;4992436;28;20847;-57
2022/12/29 09:49:04;;;;;;;3.43;1.50;;;15.70;49.80;;;;;;4992084;28;20540;-57
2022/12/29 09:51:31;;;;;;;2.20;1.43;;;15.80;49.90;;;;;;4991885;28;20458;-57
2022/12/29 09:54:02;;;;;;;3.40;1.97;;;15.90;49.80;;;;;;4990903;28;20198;-58
2022/12/29 09:56:28;;;;;;;1.47;1.30;;;15.90;49.80;;;;;;4992315;28;20422;-58
2022/12/29 09:59:04;;;;;;;1.83;1.27;;;16.20;49.50;;;;;;4992166;28;20906;-58
2022/12/29 10:01:54;;;;;;;3.50;1.40;;;16.20;49.20;;;;;;4992034;28;20217;-57
2022/12/29 10:04:20;;;;;;;1.70;1.57;;;16.10;49.50;;;;;;4992230;28;20940;-59
2022/12/29 10:06:57;;;;;;;2.23;1.67;;;16.10;49.30;;;;;;4990562;28;20414;-57
2022/12/29 10:10:01;;;;;;;2.53;1.57;;;16.20;49.90;;;;;;4992098;28;20623;-58
2022/12/29 10:12:36;;;;;;;2.23;1.50;;;16.30;49.60;;;;;;4992396;28;20472;-58
2022/12/29 10:15:26;;;;;;;1.50;1.40;;;16.20;49.40;;;;;;4992051;28;20460;-58
2022/12/29 10:18:19;;;;;;;6.03;1.97;;;16.10;49.50;;;;;;4991859;28;20914;-58
2022/12/29 10:21:05;;;;;;;2.10;1.40;;;16.10;49.60;;;;;;4980937;28;20505;-58
2022/12/29 10:23:38;;;;;;;2.10;1.43;;;16.30;49.50;;;;;;4991965;28;20438;-57
2022/12/29 10:26:09;;;;;;;1.60;1.50;;;16.30;49.80;;;;;;4991957;28;20532;-58
2022/12/29 10:28:47;;;;;;;2.83;1.67;;;16.30;49.60;;;;;;4991928;28;20581;-57
2022/12/29 10:31:20;;;;;;;2.70;1.83;;;16.20;49.70;;;;;;4991563;28;20481;-58
2022/12/29 10:33:51;;;;;;;3.23;2.23;;;16.20;50.20;;;;;;4990452;28;20766;-58
2022/12/29 10:36:21;;;;;;;3.30;1.77;;;16.00;50.60;;;;;;4991878;28;20533;-58
2022/12/29 10:39:21;;;;;;;1.83;1.70;;;15.90;50.70;;;;;;4991966;28;20437;-58
2022/12/29 10:42:04;;;;;;;3.90;1.83;;;16.00;51.00;;;;;;4980897;28;20999;-58
2022/12/29 10:44:31;;;;;;;2.17;1.90;;;16.10;50.90;;;;;;4991812;28;20877;-58
2022/12/29 10:47:10;;;;;;;2.03;1.67;;;15.90;51.20;;;;;;4991713;28;20964;-58
2022/12/29 10:49:42;;;;;;;2.67;1.53;;;16.00;51.40;;;;;;4991900;28;20426;-58
2022/12/29 10:52:10;;;;;;;1.90;1.30;;;16.00;51.60;;;;;;4992739;28;20956;-57
2022/12/29 10:54:51;;;;;;;1.87;1.27;;;16.00;51.40;;;;;;4995329;28;20430;-58
2022/12/29 10:57:31;;;;;;;2.60;1.80;;;15.90;51.70;;;;;;4995377;28;20425;-58
2022/12/29 10:59:57;;;;;;;3.50;1.67;;;16.10;52.30;;;;;;4993543;28;20983;-58
2022/12/29 11:02:47;;;;;;;1.73;1.63;;;16.20;51.60;;;;;;4995695;28;20433;-58
2022/12/29 11:05:22;;;;;;;3.90;1.73;;;16.40;51.50;;;;;;4995410;28;20473;-58
2022/12/29 11:07:52;;;;;;;2.30;1.70;;;16.30;51.50;;;;;;4995392;28;20485;-58
2022/12/29 11:10:29;;;;;;;1.77;1.63;;;16.60;51.40;;;;;;4994732;28;20437;-58
2022/12/29 11:13:01;;;;;;;1.57;1.40;;;16.70;50.90;;;;;;4995197;28;20864;-58
2022/12/29 11:15:26;;;;;;;2.53;1.83;;;16.60;50.70;;;;;;4994928;28;20464;-58
2022/12/29 11:18:01;;;;;;;2.37;1.70;;;16.40;51.30;;;;;;4994868;28;20469;-58
2022/12/29 11:20:33;;;;;;;4.40;1.67;;;16.40;51.30;;;;;;4994773;28;20181;-58
2022/12/29 11:23:00;;;;;;;2.73;1.93;;;16.50;51.70;;;;;;4994991;28;20442;-58
2022/12/29 11:25:25;;;;;;;2.80;1.93;;;16.60;51.40;;;;;;4993294;28;20441;-58
2022/12/29 11:28:04;;;;;;;2.00;1.27;;;16.60;51.30;;;;;;4994880;28;20839;-58
2022/12/29 11:30:31;;;;;;;2.20;2.00;;;16.60;51.50;;;;;;4994817;28;20528;-58
2022/12/29 11:32:58;;;;;;;1.93;1.73;;;16.60;51.60;;;;;;4994691;28;20464;-58
2022/12/29 11:35:49;;;;;;;4.53;1.67;;;16.60;51.30;;;;;;4994741;28;20526;-58
2022/12/29 11:38:33;;;;;;;1.90;1.40;;;16.70;51.50;;;;;;4990547;28;20933;-58
2022/12/29 11:40:58;;;;;;;3.67;2.20;;;16.60;50.90;;;;;;4994261;28;20430;-58
2022/12/29 11:43:34;;;;;;;3.10;1.90;;;16.50;51.30;;;;;;4994636;28;20437;-58
2022/12/29 11:46:03;;;;;;;2.17;1.50;;;16.30;51.20;;;;;;4994565;28;20603;-58
2022/12/29 11:48:49;;;;;;;4.73;1.70;;;16.30;51.50;;;;;;4993113;28;20495;-58
2022/12/29 11:51:26;;;;;;;1.90;1.57;;;16.20;51.30;;;;;;4992751;28;21017;-57
2022/12/29 11:53:57;;;;;;;1.97;1.60;;;16.20;51.40;;;;;;4994450;28;20445;-58
2022/12/29 11:56:40;;;;;;;4.50;1.80;;;16.10;51.80;;;;;;4994496;28;20437;-58
2022/12/29 11:59:38;;;;;;;3.30;1.60;;;16.20;52.00;;;;;;4994432;28;20434;-57
2022/12/29 12:02:22;;;;;;;2.10;1.67;;;16.10;52.70;;;;;;4994327;28;20960;-58
2022/12/29 12:04:53;;;;;;;1.70;1.60;;;16.00;52.70;;;;;;4993106;28;20429;-58
2022/12/29 12:07:37;;;;;;;1.70;1.53;;;15.90;53.40;;;;;;4994022;28;20477;-57
2022/12/29 12:10:05;;;;;;;1.93;1.40;;;16.10;53.90;;;;;;4993678;28;20434;-58
2022/12/29 12:12:44;;;;;;;3.50;2.20;;;16.00;54.10;;;;;;4994110;28;20438;-58
2022/12/29 12:15:27;;;;;;;2.60;2.40;;;15.80;55.20;;;;;;4994063;28;20937;-58
2022/12/29 12:18:17;;;;;;;3.63;2.87;;;15.90;56.50;;;;;;4992198;28;20469;-58
2022/12/29 12:20:53;;;;;;;4.50;3.60;;;16.00;56.40;;;;;;4982681;28;20912;-58
2022/12/29 12:23:56;;;;;;;4.00;2.73;;;15.80;57.00;;;;;;4993888;28;20421;-58
2022/12/29 12:26:32;;;;;;;2.20;2.00;;;16.00;57.30;;;;;;4993407;28;20450;-58
2022/12/29 12:29:05;;;;;;;2.47;2.10;;;16.10;56.50;;;;;;4993743;28;20484;-58
2022/12/29 12:31:42;;;;;;;2.57;2.37;;;16.30;56.60;;;;;;4993432;28;20437;-58
2022/12/29 12:34:14;;;;;;;2.00;1.70;;;16.20;56.40;;;;;;4993574;28;20987;-58
2022/12/29 12:37:01;;;;;;;3.20;1.80;;;16.30;56.30;;;;;;4993661;28;20430;-57
2022/12/29 12:39:47;;;;;;;2.20;1.50;;;16.30;55.90;;;;;;4993556;28;20442;-58
2022/12/29 12:42:15;;;;;;;2.73;1.93;;;16.30;55.60;;;;;;4993249;28;20442;-58
2022/12/29 12:45:10;;;;;;;4.03;1.53;;;16.30;55.50;;;;;;4992009;28;20480;-58
2022/12/29 12:48:03;;;;;;;2.13;1.93;;;16.40;54.60;;;;;;4993036;28;20488;-58
2022/12/29 12:51:01;;;;;;;1.67;1.50;;;16.40;54.30;;;;;;4992923;28;20434;-57
2022/12/29 12:53:49;;;;;;;2.53;1.97;;;16.20;54.20;;;;;;4960384;28;20447;-57
2022/12/29 12:56:37;;;;;;;2.30;1.67;;;16.00;54.90;;;;;;4955770;28;20769;-58
2022/12/29 12:59:24;;;;;;;2.80;1.40;;;15.90;55.60;;;;;;4993179;28;20432;-57
2022/12/29 13:01:58;;;;;;;2.67;1.57;;;15.80;56.00;;;;;;4992703;28;20441;-57
2022/12/29 13:04:47;;;;;;;3.60;2.20;;;15.50;56.80;;;;;;4993247;28;20438;-57
2022/12/29 13:07:21;;;;;;;3.80;1.90;;;15.40;57.20;;;;;;4992916;28;20828;-57
2022/12/29 13:10:17;;;;;;;2.40;2.03;;;15.40;57.40;;;;;;4992842;28;20483;-57
2022/12/29 13:12:54;;;;;;;5.50;2.80;;;15.50;57.80;;;;;;4991458;28;20422;-58
2022/12/29 13:15:49;;;;;;;5.23;2.00;;;15.70;57.60;;;;;;4992608;28;20827;-57
2022/12/29 13:18:34;;;;;;;4.03;2.10;;;15.90;57.40;;;;;;4992817;28;20470;-58
2022/12/29 13:21:07;;;;;;;3.43;2.20;;;16.10;57.40;;;;;;4992650;28;20430;-58
2022/12/29 13:23:54;;;;;;;3.03;2.47;;;16.30;57.10;;;;;;4992707;28;20708;-58
2022/12/29 13:26:32;;;;;;;3.20;1.90;;;16.30;56.80;;;;;;4991540;28;20448;-57
2022/12/29 13:29:10;;;;;;;2.43;2.07;;;16.00;57.30;;;;;;4992480;28;20542;-57
2022/12/29 13:32:17;;;;;;;2.07;1.87;;;16.00;57.70;;;;;;4992221;28;20437;-58
2022/12/29 13:35:13;;;;;;;2.50;1.50;;;15.90;57.70;;;;;;4992311;28;20445;-57
2022/12/29 13:37:58;;;;;;;1.93;1.70;;;15.80;57.50;;;;;;4991251;28;20434;-58
2022/12/29 13:40:28;;;;;;;1.90;1.60;;;15.80;58.00;;;;;;4992119;28;20513;-58